Time;durP1;ratioP1;P1;durP2;ratioP2;P2;SDS_P1;SDS_P2;PMS_P1;PMS_P2;Temp;Humidity;BMP_temperature;BMP_pressure;BME280_temperature;BME280_humidity;BME280_pressure;Samples;Min_cycle;Max_cycle;Signal;HPM_P1;HPM_P2
2021/04/16 00:01:34;;;;;;;11.10;6.07;;;4.60;99.90;;;;;;5073839;28;20036;-66
2021/04/16 00:03:59;;;;;;;9.80;5.97;;;4.60;99.90;;;;;;5074138;28;20025;-65
2021/04/16 00:06:25;;;;;;;12.27;6.63;;;4.50;99.90;;;;;;5074147;28;20042;-65
2021/04/16 00:08:50;;;;;;;12.73;6.13;;;4.50;99.90;;;;;;5074092;28;20029;-65
2021/04/16 00:11:21;;;;;;;10.40;6.03;;;4.50;99.90;;;;;;5073803;28;20032;-65
2021/04/16 00:13:46;;;;;;;13.98;7.00;;;4.60;99.90;;;;;;5074088;28;20476;-65
2021/04/16 00:16:16;;;;;;;14.60;6.38;;;4.50;99.90;;;;;;5074031;28;20028;-65
2021/04/16 00:18:42;;;;;;;10.82;6.55;;;4.50;99.90;;;;;;5074013;28;20052;-66
2021/04/16 00:21:08;;;;;;;13.85;6.47;;;4.50;99.90;;;;;;5073408;28;20491;-66
2021/04/16 00:23:33;;;;;;;9.73;6.10;;;4.40;99.90;;;;;;5055760;28;20064;-66
2021/04/16 00:25:59;;;;;;;8.82;5.97;;;4.40;99.90;;;;;;5073634;28;20595;-65
2021/04/16 00:28:26;;;;;;;9.93;6.10;;;4.40;99.90;;;;;;5073859;28;20025;-65
2021/04/16 00:30:55;;;;;;;11.70;5.75;;;4.40;99.90;;;;;;5073882;28;20013;-66
2021/04/16 00:33:21;;;;;;;10.35;6.15;;;4.40;99.90;;;;;;5073308;28;20031;-65
2021/04/16 00:35:47;;;;;;;9.60;6.10;;;4.40;99.90;;;;;;5073568;28;20063;-65
2021/04/16 00:38:14;;;;;;;10.68;5.70;;;4.40;99.90;;;;;;5055664;28;20032;-65
2021/04/16 00:40:43;;;;;;;10.50;5.90;;;4.50;99.90;;;;;;5073813;28;20469;-65
2021/04/16 00:43:10;;;;;;;10.82;6.15;;;4.40;99.90;;;;;;5073851;28;20020;-65
2021/04/16 00:45:37;;;;;;;13.82;6.15;;;4.40;99.90;;;;;;5077823;28;20020;-65
2021/04/16 00:48:06;;;;;;;12.02;6.25;;;4.40;99.90;;;;;;5077766;28;20485;-65
2021/04/16 00:50:40;;;;;;;12.00;6.45;;;4.40;99.90;;;;;;5077701;28;20111;-65
2021/04/16 00:53:06;;;;;;;11.02;6.80;;;4.30;99.90;;;;;;5077380;28;20074;-65
2021/04/16 00:55:32;;;;;;;11.48;6.63;;;4.30;99.90;;;;;;5077321;28;20025;-65
2021/04/16 00:57:59;;;;;;;12.93;6.63;;;4.20;99.90;;;;;;5077548;28;20111;-65
2021/04/16 01:00:27;;;;;;;10.48;6.55;;;4.30;99.90;;;;;;5077534;28;20024;-65
2021/04/16 01:02:52;;;;;;;10.80;5.97;;;4.30;99.90;;;;;;5077425;28;20028;-65
2021/04/16 01:05:19;;;;;;;10.50;6.15;;;4.30;99.90;;;;;;5077168;28;20032;-66
2021/04/16 01:07:45;;;;;;;10.98;6.55;;;4.30;99.90;;;;;;5077082;28;20381;-65
2021/04/16 01:10:11;;;;;;;12.80;5.97;;;4.30;99.90;;;;;;5077316;28;20029;-65
2021/04/16 01:12:37;;;;;;;11.98;7.15;;;4.20;99.90;;;;;;5077257;28;20031;-65
2021/04/16 01:15:16;;;;;;;12.85;7.07;;;4.20;99.90;;;;;;5077252;28;20025;-65
2021/04/16 01:17:46;;;;;;;11.70;6.53;;;4.20;99.90;;;;;;5076893;28;20024;-65
2021/04/16 01:20:17;;;;;;;12.98;7.05;;;4.10;99.90;;;;;;5077126;28;20020;-65
2021/04/16 01:22:54;;;;;;;11.30;7.45;;;4.10;99.90;;;;;;5076271;28;20048;-65
2021/04/16 01:25:21;;;;;;;14.60;7.22;;;4.20;99.90;;;;;;5077053;28;20020;-65
2021/04/16 01:27:47;;;;;;;10.30;6.85;;;4.10;99.90;;;;;;5077004;28;20086;-65
2021/04/16 01:30:19;;;;;;;11.05;7.25;;;4.10;99.90;;;;;;5076946;28;20020;-65
2021/04/16 01:32:45;;;;;;;12.48;7.55;;;4.10;99.90;;;;;;5058491;28;20066;-67
2021/04/16 01:35:14;;;;;;;13.15;7.00;;;4.10;99.90;;;;;;5076599;28;20441;-66
2021/04/16 01:37:40;;;;;;;11.70;7.32;;;4.10;99.90;;;;;;5076810;28;20046;-65
2021/04/16 01:40:09;;;;;;;16.92;7.18;;;4.00;99.90;;;;;;5076821;28;20024;-65
2021/04/16 01:42:35;;;;;;;12.20;7.10;;;4.00;99.90;;;;;;5076660;28;20162;-65
2021/04/16 01:45:00;;;;;;;11.45;6.95;;;4.00;99.90;;;;;;5076141;28;20056;-65
2021/04/16 01:47:26;;;;;;;13.52;7.85;;;4.00;99.90;;;;;;5076629;28;20024;-65
2021/04/16 01:49:52;;;;;;;13.25;6.82;;;4.00;99.90;;;;;;5058992;28;20032;-66
2021/04/16 01:52:26;;;;;;;11.85;7.28;;;4.00;99.90;;;;;;5076293;28;20033;-65
2021/04/16 01:54:53;;;;;;;13.35;7.47;;;4.10;99.90;;;;;;5075473;28;20039;-66
2021/04/16 01:57:22;;;;;;;11.43;7.25;;;4.00;99.90;;;;;;5076203;28;20382;-65
2021/04/16 01:59:49;;;;;;;15.10;7.78;;;4.10;99.90;;;;;;5058793;28;20381;-65
2021/04/16 02:02:22;;;;;;;11.85;6.65;;;4.10;99.90;;;;;;5076330;28;20021;-66
2021/04/16 02:04:47;;;;;;;7.53;5.18;;;4.10;99.90;;;;;;5058258;28;20020;-65
2021/04/16 02:07:13;;;;;;;14.02;8.02;;;4.10;99.90;;;;;;5076055;28;20028;-66
2021/04/16 02:09:40;;;;;;;15.13;7.60;;;4.10;99.90;;;;;;5076236;28;20028;-65
2021/04/16 02:12:08;;;;;;;11.93;7.50;;;4.10;99.90;;;;;;5075925;28;20462;-65
2021/04/16 02:14:34;;;;;;;11.35;6.88;;;4.10;99.90;;;;;;5076194;28;20024;-65
2021/04/16 02:17:03;;;;;;;13.20;7.20;;;4.10;99.90;;;;;;5057589;28;20534;-65
2021/04/16 02:19:29;;;;;;;14.02;8.02;;;4.10;99.90;;;;;;5076042;28;20021;-65
2021/04/16 02:21:55;;;;;;;12.35;7.63;;;4.10;99.90;;;;;;5075399;28;20401;-66
2021/04/16 02:24:21;;;;;;;13.73;7.78;;;4.10;99.90;;;;;;5075688;28;20028;-65
2021/04/16 02:26:48;;;;;;;15.30;7.68;;;4.10;99.90;;;;;;5075936;28;20017;-65
2021/04/16 02:29:17;;;;;;;11.65;7.40;;;4.00;99.90;;;;;;5075631;28;20454;-65
2021/04/16 02:31:43;;;;;;;13.93;7.57;;;4.10;99.90;;;;;;5075815;28;20021;-65
2021/04/16 02:34:11;;;;;;;13.88;7.93;;;4.10;99.90;;;;;;5075770;28;20099;-65
2021/04/16 02:36:36;;;;;;;12.82;8.13;;;4.10;99.90;;;;;;5075719;28;20104;-65
2021/04/16 02:39:05;;;;;;;12.35;8.10;;;4.00;99.90;;;;;;5075349;28;20070;-66
2021/04/16 02:41:31;;;;;;;17.60;8.75;;;4.00;99.90;;;;;;5058113;28;20017;-65
2021/04/16 02:43:56;;;;;;;11.38;7.65;;;4.00;99.90;;;;;;5075569;28;20104;-65
2021/04/16 02:46:22;;;;;;;12.45;7.47;;;4.00;99.90;;;;;;5074961;28;20021;-65
2021/04/16 02:48:47;;;;;;;12.65;7.63;;;4.10;99.90;;;;;;5057852;28;20028;-65
2021/04/16 02:51:13;;;;;;;11.23;7.63;;;4.10;99.90;;;;;;5075148;28;20051;-65
2021/04/16 02:53:38;;;;;;;15.40;8.32;;;4.00;99.90;;;;;;5057764;28;20370;-65
2021/04/16 02:56:04;;;;;;;13.60;7.20;;;4.00;99.90;;;;;;5075298;28;20021;-65
2021/04/16 02:58:29;;;;;;;14.43;7.30;;;4.00;99.90;;;;;;5075271;28;20025;-66
2021/04/16 03:00:55;;;;;;;13.38;8.00;;;4.00;99.90;;;;;;5075128;28;20025;-66
2021/04/16 03:03:21;;;;;;;14.10;8.38;;;3.90;99.90;;;;;;5074952;28;20031;-65
2021/04/16 03:05:47;;;;;;;16.27;8.68;;;3.90;99.90;;;;;;5074060;28;20024;-66
2021/04/16 03:08:12;;;;;;;13.35;8.02;;;3.90;99.90;;;;;;5056866;28;20480;-66
2021/04/16 03:10:38;;;;;;;16.10;8.80;;;3.90;99.90;;;;;;5075031;28;20386;-65
2021/04/16 03:13:04;;;;;;;18.25;8.15;;;3.90;99.90;;;;;;5074691;28;20082;-65
2021/04/16 03:15:30;;;;;;;14.70;7.78;;;3.90;99.90;;;;;;5074379;28;20111;-65
2021/04/16 03:17:56;;;;;;;16.77;7.75;;;4.00;99.90;;;;;;5074362;28;20058;-65
2021/04/16 03:20:22;;;;;;;12.70;7.40;;;4.00;99.90;;;;;;5074834;28;20024;-65
2021/04/16 03:22:48;;;;;;;12.25;7.75;;;4.00;99.90;;;;;;5074177;28;20102;-65
2021/04/16 03:25:15;;;;;;;14.75;8.20;;;4.10;99.90;;;;;;5074685;28;20024;-66
2021/04/16 03:27:41;;;;;;;14.18;7.85;;;4.10;99.90;;;;;;5074676;28;20021;-65
2021/04/16 03:30:12;;;;;;;12.45;7.28;;;4.00;99.90;;;;;;5056935;28;20020;-65
2021/04/16 03:32:38;;;;;;;11.18;7.75;;;3.80;99.90;;;;;;5074604;28;20028;-65
2021/04/16 03:35:05;;;;;;;13.25;8.40;;;3.80;99.90;;;;;;5074005;28;20035;-65
2021/04/16 03:37:30;;;;;;;13.70;8.10;;;3.70;99.90;;;;;;5074242;28;20017;-65
2021/04/16 03:39:56;;;;;;;17.05;8.77;;;3.70;99.90;;;;;;5074194;28;20077;-65
2021/04/16 03:42:21;;;;;;;16.27;8.60;;;3.70;99.90;;;;;;5074380;28;20024;-65
2021/04/16 03:44:47;;;;;;;16.40;9.07;;;3.70;99.90;;;;;;5074437;28;20032;-65
2021/04/16 03:47:13;;;;;;;13.68;7.45;;;3.60;99.90;;;;;;5074365;28;20024;-65
2021/04/16 03:49:38;;;;;;;18.02;9.30;;;3.50;99.90;;;;;;5074005;28;20028;-65
2021/04/16 03:52:04;;;;;;;12.07;8.60;;;3.40;99.90;;;;;;5073756;28;20032;-65
2021/04/16 03:54:31;;;;;;;14.95;9.57;;;3.40;99.90;;;;;;5073877;28;20032;-65
2021/04/16 03:56:57;;;;;;;16.13;9.57;;;3.30;99.90;;;;;;5056115;28;20028;-65
2021/04/16 03:59:24;;;;;;;16.33;9.70;;;3.20;99.90;;;;;;5055787;28;20099;-65
2021/04/16 04:01:51;;;;;;;16.33;8.98;;;3.10;99.90;;;;;;5073657;28;20425;-65
2021/04/16 04:04:18;;;;;;;13.48;9.30;;;3.00;99.90;;;;;;5074212;28;20463;-65
2021/04/16 04:06:46;;;;;;;16.65;9.10;;;2.90;99.90;;;;;;5073878;28;20021;-65
2021/04/16 04:09:12;;;;;;;14.75;9.50;;;2.80;99.90;;;;;;5073540;28;20021;-65
2021/04/16 04:11:37;;;;;;;15.18;9.85;;;2.70;99.90;;;;;;5073821;28;20412;-65
2021/04/16 04:14:03;;;;;;;15.98;9.85;;;2.60;99.90;;;;;;5073482;28;20074;-65
2021/04/16 04:16:29;;;;;;;21.27;10.90;;;2.60;99.90;;;;;;5055974;28;20021;-65
2021/04/16 04:18:55;;;;;;;16.60;10.60;;;2.50;99.90;;;;;;5073749;28;20021;-65
2021/04/16 04:21:21;;;;;;;17.17;10.73;;;2.40;99.90;;;;;;5073745;28;20069;-65
2021/04/16 04:23:47;;;;;;;20.30;11.27;;;2.40;99.90;;;;;;5073913;28;20106;-65
2021/04/16 04:26:13;;;;;;;18.52;11.05;;;2.30;99.90;;;;;;5073943;28;20482;-65
2021/04/16 04:28:38;;;;;;;20.88;11.40;;;2.30;99.90;;;;;;5073914;28;20381;-65
2021/04/16 04:31:04;;;;;;;17.20;10.77;;;2.20;99.90;;;;;;5073351;28;20052;-65
2021/04/16 04:33:29;;;;;;;18.45;10.90;;;2.20;99.90;;;;;;5056061;28;20113;-65
2021/04/16 04:35:55;;;;;;;20.42;11.50;;;2.10;99.90;;;;;;5073627;28;20043;-65
2021/04/16 04:38:21;;;;;;;18.25;11.50;;;2.20;99.90;;;;;;5055655;28;20020;-65
2021/04/16 04:40:46;;;;;;;22.25;12.38;;;2.20;99.90;;;;;;5073812;28;20112;-65
2021/04/16 04:43:12;;;;;;;23.80;11.55;;;2.20;99.90;;;;;;5073754;28;20377;-65
2021/04/16 04:45:38;;;;;;;18.85;11.18;;;2.30;99.90;;;;;;5055960;28;20058;-65
2021/04/16 04:48:04;;;;;;;20.15;11.73;;;2.20;99.90;;;;;;5073750;28;20021;-65
2021/04/16 04:50:30;;;;;;;17.73;11.40;;;2.30;99.90;;;;;;5073671;28;20472;-65
2021/04/16 04:52:56;;;;;;;22.48;12.60;;;2.20;99.90;;;;;;5073412;28;20500;-65
2021/04/16 04:55:26;;;;;;;18.52;11.60;;;2.20;99.90;;;;;;5055664;28;20108;-65
2021/04/16 04:57:52;;;;;;;24.23;12.30;;;2.30;99.90;;;;;;5073643;28;20055;-65
2021/04/16 05:00:18;;;;;;;17.88;11.52;;;2.30;99.90;;;;;;5055532;28;20060;-65
2021/04/16 05:02:44;;;;;;;19.95;12.32;;;2.30;99.90;;;;;;5073499;28;20029;-65
2021/04/16 05:05:12;;;;;;;19.85;11.88;;;2.40;99.90;;;;;;5073576;28;20025;-65
2021/04/16 05:07:37;;;;;;;18.80;11.73;;;2.40;99.90;;;;;;5055047;28;20397;-65
2021/04/16 05:10:04;;;;;;;20.58;12.50;;;2.40;99.90;;;;;;5073576;28;20021;-65
2021/04/16 05:12:30;;;;;;;22.45;12.43;;;2.40;99.90;;;;;;5073515;28;20020;-65
2021/04/16 05:14:56;;;;;;;20.33;12.68;;;2.40;99.90;;;;;;5073490;28;20036;-65
2021/04/16 05:17:21;;;;;;;17.95;11.40;;;2.70;99.90;;;;;;5073154;28;20111;-65
2021/04/16 05:19:47;;;;;;;20.33;11.52;;;3.00;99.90;;;;;;5072898;28;20032;-65
2021/04/16 05:22:13;;;;;;;20.80;11.63;;;3.30;99.90;;;;;;5072589;28;20044;-65
2021/04/16 05:24:38;;;;;;;18.45;10.52;;;3.70;99.90;;;;;;5073357;28;20021;-65
2021/04/16 05:27:07;;;;;;;17.90;10.25;;;4.00;99.90;;;;;;5072845;28;20035;-65
2021/04/16 05:29:33;;;;;;;15.43;9.80;;;4.40;99.90;;;;;;5073786;28;20031;-65
2021/04/16 05:31:59;;;;;;;13.27;8.93;;;4.70;99.90;;;;;;5076388;28;20104;-66
2021/04/16 05:34:25;;;;;;;15.55;8.65;;;4.90;99.90;;;;;;5077104;28;20107;-66
2021/04/16 05:36:51;;;;;;;13.80;9.07;;;5.30;99.90;;;;;;5076609;28;20036;-66
2021/04/16 05:39:17;;;;;;;16.40;8.68;;;5.80;99.90;;;;;;5076782;28;20107;-66
2021/04/16 05:41:43;;;;;;;14.00;8.98;;;6.10;99.90;;;;;;5076660;28;20112;-66
2021/04/16 05:44:08;;;;;;;12.98;8.15;;;6.50;99.90;;;;;;5076676;28;20370;-66
2021/04/16 05:46:34;;;;;;;14.50;7.82;;;6.90;99.90;;;;;;5076691;28;20021;-66
2021/04/16 05:49:00;;;;;;;18.02;8.13;;;7.30;99.90;;;;;;5076363;28;20017;-66
2021/04/16 05:51:25;;;;;;;12.23;7.25;;;7.60;99.90;;;;;;5076307;28;20020;-66
2021/04/16 05:53:51;;;;;;;12.43;7.28;;;8.00;99.90;;;;;;5076533;28;20047;-67
2021/04/16 05:56:17;;;;;;;11.63;7.38;;;8.30;99.90;;;;;;5076500;28;20088;-66
2021/04/16 05:58:43;;;;;;;15.00;7.30;;;8.30;99.90;;;;;;5076131;28;20032;-66
2021/04/16 06:01:09;;;;;;;12.90;7.75;;;8.40;99.90;;;;;;5076238;28;20099;-66
2021/04/16 06:03:35;;;;;;;9.68;7.38;;;8.40;99.90;;;;;;5076278;28;20028;-66
2021/04/16 06:06:01;;;;;;;10.98;7.43;;;9.20;99.90;;;;;;5076250;28;20062;-67
2021/04/16 06:08:27;;;;;;;12.35;7.65;;;9.90;99.90;;;;;;5076199;28;20082;-67
2021/04/16 06:10:56;;;;;;;13.40;7.57;;;10.10;99.90;;;;;;5076164;28;20075;-67
2021/04/16 06:13:22;;;;;;;11.23;7.32;;;10.30;99.90;;;;;;5076032;28;20415;-67
2021/04/16 06:15:48;;;;;;;13.23;7.60;;;10.30;99.90;;;;;;5075754;28;20060;-67
2021/04/16 06:18:14;;;;;;;11.57;7.00;;;10.30;99.90;;;;;;5076044;28;20098;-67
2021/04/16 06:20:39;;;;;;;10.80;7.43;;;9.70;99.90;;;;;;5075426;28;20496;-67
2021/04/16 06:23:05;;;;;;;13.13;7.93;;;9.00;99.90;;;;;;5075161;28;20056;-67
2021/04/16 06:25:33;;;;;;;13.05;8.13;;;8.80;99.90;;;;;;5057810;28;20024;-67
2021/04/16 06:28:00;;;;;;;33.97;8.48;;;9.10;99.90;;;;;;5075264;28;20446;-67
2021/04/16 06:30:26;;;;;;;11.30;8.23;;;8.90;99.90;;;;;;5057371;28;20027;-67
2021/04/16 06:33:06;;;;;;;16.92;9.00;;;7.70;99.90;;;;;;5075736;28;20099;-66
2021/04/16 06:35:34;;;;;;;15.80;8.95;;;7.60;99.90;;;;;;5075463;28;20104;-67
2021/04/16 06:38:01;;;;;;;13.35;8.50;;;7.50;99.90;;;;;;5075618;28;20052;-66
2021/04/16 06:40:28;;;;;;;14.77;8.55;;;8.20;99.90;;;;;;5059518;28;20024;-67
2021/04/16 06:42:54;;;;;;;13.05;7.78;;;8.50;99.90;;;;;;5069135;28;20028;-67
2021/04/16 06:45:24;;;;;;;14.65;8.32;;;8.60;99.90;;;;;;5057742;28;20052;-67
2021/04/16 06:47:56;;;;;;;12.05;8.13;;;8.70;99.90;;;;;;5065105;28;20099;-67
2021/04/16 06:50:24;;;;;;;13.52;7.82;;;8.30;99.90;;;;;;5074420;28;20026;-67
2021/04/16 06:53:13;;;;;;;11.75;8.25;;;8.00;99.90;;;;;;5072950;28;20032;-67
2021/04/16 06:55:59;;;;;;;11.50;7.28;;;8.00;99.90;;;;;;5074093;28;20028;-67
2021/04/16 06:58:49;;;;;;;11.50;8.30;;;8.20;99.90;;;;;;5055381;28;20023;-67
2021/04/16 07:01:35;;;;;;;10.57;7.75;;;8.30;99.90;;;;;;5074141;28;20051;-68
2021/04/16 07:04:17;;;;;;;8.40;6.63;;;9.30;99.90;;;;;;5066003;28;20031;-67
2021/04/16 07:06:43;;;;;;;11.10;6.90;;;10.60;99.90;;;;;;5062221;28;20028;-68
2021/04/16 07:09:13;;;;;;;10.38;6.97;;;11.10;99.90;;;;;;5074147;28;20527;-67
2021/04/16 07:11:43;;;;;;;11.02;6.47;;;10.60;99.90;;;;;;5068113;28;20025;-67
2021/04/16 07:14:19;;;;;;;8.15;6.80;;;10.50;99.90;;;;;;5053232;28;20063;-67
2021/04/16 07:16:45;;;;;;;11.50;7.30;;;9.70;99.90;;;;;;5067359;28;20032;-68
2021/04/16 07:19:15;;;;;;;13.23;6.97;;;9.50;99.90;;;;;;5066382;28;20032;-68
2021/04/16 07:21:41;;;;;;;9.73;6.82;;;9.10;99.90;;;;;;5057984;28;20048;-67
2021/04/16 07:24:07;;;;;;;9.63;6.50;;;8.20;99.90;;;;;;5073806;28;20028;-67
2021/04/16 07:29:20;;;;;;;8.27;6.00;;;9.20;99.90;;;;;;5070538;28;20353;-65
2021/04/16 07:31:49;;;;;;;10.32;6.70;;;10.50;99.90;;;;;;5068189;28;20055;-66
2021/04/16 07:39:49;;;;;;;12.07;6.75;;;10.40;99.90;;;;;;5111584;27;20295;-68
2021/04/16 07:42:20;;;;;;;10.55;7.13;;;9.50;99.90;;;;;;5105644;28;20030;-67
2021/04/16 07:45:07;;;;;;;10.90;6.07;;;9.40;99.90;;;;;;5110558;28;20036;-67
2021/04/16 07:47:34;;;;;;;12.50;6.47;;;9.10;99.90;;;;;;5107234;28;20077;-67
2021/04/16 07:52:44;;;;;;;8.85;6.57;;;9.10;99.90;;;;;;5110089;27;20932;-67
2021/04/16 07:55:32;;;;;;;10.35;6.18;;;9.10;99.90;;;;;;5110222;28;20023;-67
2021/04/16 07:58:19;;;;;;;9.20;6.32;;;8.90;99.90;;;;;;5101502;28;20019;-67
2021/04/16 08:00:46;;;;;;;7.30;5.43;;;9.60;99.90;;;;;;5104835;28;20046;-67
2021/04/16 08:03:17;;;;;;;8.15;5.82;;;10.10;99.90;;;;;;5090830;28;20032;-67
2021/04/16 08:05:49;;;;;;;9.65;6.60;;;10.10;99.90;;;;;;5093784;28;20054;-67
2021/04/16 08:08:25;;;;;;;12.90;6.93;;;9.30;99.90;;;;;;5110522;28;20032;-67
2021/04/16 08:16:32;;;;;;;10.23;6.40;;;8.70;99.90;;;;;;5109952;27;20405;-67
2021/04/16 08:21:39;;;;;;;7.65;5.07;;;9.10;99.90;;;;;;5097660;27;20372;-66
2021/04/16 08:24:35;;;;;;;11.38;5.32;;;8.60;99.90;;;;;;5090534;28;20029;-66
2021/04/16 08:27:16;;;;;;;11.65;5.70;;;8.90;99.90;;;;;;5090605;28;20068;-66
2021/04/16 08:29:48;;;;;;;12.98;5.60;;;8.70;99.90;;;;;;5089417;28;20048;-66
2021/04/16 08:32:40;;;;;;;5.78;4.78;;;9.10;99.90;;;;;;5090636;28;20028;-67
2021/04/16 08:35:31;;;;;;;7.55;5.32;;;9.00;99.90;;;;;;5090221;28;20016;-67
2021/04/16 08:38:01;;;;;;;9.75;4.90;;;9.40;99.90;;;;;;5090237;28;20485;-67
2021/04/16 08:40:49;;;;;;;9.07;4.40;;;8.70;99.90;;;;;;5089978;28;20366;-66
2021/04/16 08:43:26;;;;;;;13.27;5.20;;;8.70;99.90;;;;;;5089989;28;20066;-67
2021/04/16 08:45:52;;;;;;;8.55;5.18;;;8.70;99.90;;;;;;5090350;28;20473;-67
2021/04/16 08:48:25;;;;;;;7.00;4.60;;;8.60;99.90;;;;;;5089862;28;20444;-66
2021/04/16 08:50:56;;;;;;;7.00;4.57;;;8.80;99.90;;;;;;5090395;28;20050;-66
2021/04/16 08:53:22;;;;;;;7.60;4.68;;;8.60;99.90;;;;;;5071441;28;20016;-66
2021/04/16 08:55:51;;;;;;;10.30;4.75;;;8.80;99.90;;;;;;5106013;28;20492;-66
2021/04/16 08:58:35;;;;;;;11.25;6.32;;;8.60;99.90;;;;;;5089682;28;20048;-66
2021/04/16 09:01:14;;;;;;;9.18;5.43;;;8.10;99.90;;;;;;5089734;28;20028;-66
2021/04/16 09:03:44;;;;;;;11.02;5.60;;;8.20;99.90;;;;;;5089816;28;20023;-66
2021/04/16 09:06:25;;;;;;;10.88;5.63;;;8.30;99.90;;;;;;5088630;28;20111;-66
2021/04/16 09:08:52;;;;;;;8.85;5.45;;;8.50;99.90;;;;;;5089921;28;20016;-66
2021/04/16 09:17:08;;;;;;;12.40;6.18;;;8.80;99.90;;;;;;5090147;28;20425;-67
2021/04/16 09:19:39;;;;;;;7.45;5.68;;;9.00;99.90;;;;;;5090992;28;20032;-67
2021/04/16 09:27:33;;;;;;;8.60;6.07;;;9.00;99.90;;;;;;5110512;27;20383;-67
2021/04/16 09:32:48;;;;;;;10.27;5.38;;;9.10;99.90;;;;;;5110318;27;20436;-67
2021/04/16 09:38:29;;;;;;;5.57;4.38;;;9.70;99.90;;;;;;5104596;27;20434;-67
2021/04/16 09:44:20;;;;;;;9.27;4.57;;;9.10;99.90;;;;;;5110528;27;20872;-67
2021/04/16 09:46:48;;;;;;;10.02;5.18;;;9.00;99.90;;;;;;5069817;28;20075;-67
2021/04/16 09:49:33;;;;;;;9.73;4.97;;;9.10;99.90;;;;;;5088560;28;20466;-66
2021/04/16 09:52:21;;;;;;;5.53;4.18;;;9.50;99.90;;;;;;5111220;28;20035;-65
2021/04/16 09:54:46;;;;;;;7.53;4.90;;;9.50;99.90;;;;;;5100037;28;20028;-65
2021/04/16 09:57:39;;;;;;;8.70;4.28;;;9.50;99.90;;;;;;5090923;28;20393;-66
2021/04/16 10:00:44;;;;;;;7.60;4.80;;;10.00;99.90;;;;;;5102372;28;20020;-65
2021/04/16 10:03:20;;;;;;;4.93;4.43;;;9.60;99.90;;;;;;5110447;28;20286;-66
2021/04/16 10:05:47;;;;;;;8.32;4.22;;;10.30;99.90;;;;;;5092732;28;20023;-66
2021/04/16 10:08:30;;;;;;;8.13;4.80;;;10.10;99.90;;;;;;5100776;28;20481;-66
2021/04/16 10:11:05;;;;;;;9.23;4.35;;;10.90;99.90;;;;;;5069558;28;20050;-66
2021/04/16 10:13:35;;;;;;;7.18;4.68;;;11.30;99.90;;;;;;5096893;28;20043;-66
2021/04/16 10:16:01;;;;;;;6.10;4.50;;;10.70;99.90;;;;;;5092581;28;20028;-66
2021/04/16 10:18:33;;;;;;;7.97;4.40;;;11.30;99.90;;;;;;5090681;28;20024;-66
2021/04/16 10:31:05;;;;;;;5.65;4.00;;;15.90;78.20;;;;;;5049064;28;20025;-68
2021/04/16 10:51:13;;;;;;;7.28;4.72;;;14.10;73.50;;;;;;5110640;28;20039;-66
2021/04/16 10:56:57;;;;;;;6.85;4.22;;;14.00;83.80;;;;;;5090039;28;20037;-68
2021/04/16 11:06:13;;;;;;;9.52;4.60;;;12.50;90.10;;;;;;5110444;27;20416;-66
2021/04/16 11:08:07;;;;;;;7.72;5.20;;;13.30;90.00;;;;;;5094002;28;20047;-68
2021/04/16 11:18:38;;;;;;;7.32;4.07;;;13.80;82.10;;;;;;5090394;27;20116;-67
2021/04/16 12:38:21;;;;;;;12.60;3.45;;;13.40;66.30;;;;;;5101804;28;20024;-66
2021/04/16 12:40:46;;;;;;;5.47;3.53;;;13.40;65.00;;;;;;5109469;28;20098;-66
2021/04/16 12:43:12;;;;;;;6.22;3.42;;;13.70;66.20;;;;;;5093938;28;20107;-66
2021/04/16 12:45:37;;;;;;;5.20;3.55;;;13.60;62.70;;;;;;5084906;28;20031;-66
2021/04/16 12:48:03;;;;;;;5.07;3.50;;;12.90;63.20;;;;;;5095970;28;20427;-66
2021/04/16 12:50:32;;;;;;;5.20;3.28;;;12.80;67.70;;;;;;5085536;28;20021;-66
2021/04/16 12:52:58;;;;;;;4.05;3.10;;;13.20;69.00;;;;;;5057652;28;20141;-66
2021/04/16 12:55:24;;;;;;;6.32;3.53;;;13.50;69.60;;;;;;5085509;28;20616;-66
2021/04/16 12:57:54;;;;;;;5.05;3.20;;;13.80;63.10;;;;;;5094255;28;20381;-66
2021/04/16 13:00:40;;;;;;;9.52;3.70;;;13.70;61.40;;;;;;5094119;28;20051;-66
2021/04/16 13:03:13;;;;;;;8.45;3.38;;;14.10;67.80;;;;;;5091728;28;20024;-66
2021/04/16 13:05:40;;;;;;;4.93;3.05;;;14.60;59.90;;;;;;5075416;28;20031;-66
2021/04/16 13:08:07;;;;;;;4.25;3.13;;;13.90;57.80;;;;;;5075868;28;20070;-66
2021/04/16 13:10:33;;;;;;;4.82;2.95;;;13.20;59.80;;;;;;5076439;28;20013;-66
2021/04/16 13:12:59;;;;;;;4.18;2.78;;;13.10;67.00;;;;;;5079991;28;20033;-66
2021/04/16 13:15:25;;;;;;;5.32;3.28;;;13.00;62.70;;;;;;5075462;28;20402;-66
2021/04/16 13:17:55;;;;;;;3.90;3.30;;;13.00;60.70;;;;;;5075185;28;20028;-66
2021/04/16 13:20:22;;;;;;;5.20;3.22;;;13.30;63.10;;;;;;5076719;28;20024;-66
2021/04/16 13:22:48;;;;;;;5.63;2.92;;;13.50;60.30;;;;;;5087338;28;20024;-66
2021/04/16 13:25:18;;;;;;;4.25;2.42;;;13.30;59.30;;;;;;5079027;28;20021;-66
2021/04/16 13:27:45;;;;;;;4.35;2.85;;;13.10;58.80;;;;;;5076325;28;20054;-67
2021/04/16 13:30:13;;;;;;;5.90;3.10;;;13.00;60.70;;;;;;5081472;28;20046;-67
2021/04/16 13:32:42;;;;;;;3.22;2.80;;;13.00;66.00;;;;;;5078244;28;20013;-66
2021/04/16 13:35:12;;;;;;;4.88;2.60;;;13.20;66.10;;;;;;5063680;28;20025;-68
2021/04/16 13:37:38;;;;;;;7.70;3.22;;;13.30;64.60;;;;;;5073866;28;20021;-68
2021/04/16 13:40:04;;;;;;;3.67;2.80;;;13.30;61.70;;;;;;5078163;28;20025;-68
2021/04/16 13:42:30;;;;;;;4.22;2.85;;;12.80;61.00;;;;;;5073874;28;20017;-68
2021/04/16 13:44:56;;;;;;;3.95;3.17;;;12.90;62.20;;;;;;5080250;28;20539;-68
2021/04/16 13:47:25;;;;;;;3.92;2.75;;;13.30;61.90;;;;;;5085854;28;20016;-68
2021/04/16 13:49:51;;;;;;;7.22;3.45;;;13.20;58.90;;;;;;5092843;28;20435;-66
2021/04/16 13:52:17;;;;;;;4.50;3.20;;;13.00;59.70;;;;;;5091312;28;20474;-67
2021/04/16 13:54:47;;;;;;;6.70;2.92;;;13.10;64.40;;;;;;5085094;28;20042;-68
2021/04/16 13:57:15;;;;;;;2.92;2.55;;;13.30;60.90;;;;;;5075103;28;20023;-68
2021/04/16 13:59:42;;;;;;;5.65;2.70;;;13.40;61.30;;;;;;5089042;28;20369;-68
2021/04/16 14:02:08;;;;;;;4.97;3.03;;;13.70;58.10;;;;;;5085484;28;20025;-66
2021/04/16 14:04:36;;;;;;;8.32;3.20;;;13.40;58.40;;;;;;5074542;28;20028;-67
2021/04/16 14:07:06;;;;;;;3.72;3.10;;;13.30;59.60;;;;;;5085881;28;20051;-68
2021/04/16 14:09:32;;;;;;;5.18;2.92;;;12.90;58.00;;;;;;5075235;28;20029;-68
2021/04/16 14:11:58;;;;;;;6.80;2.80;;;12.70;59.90;;;;;;5077925;28;20529;-67
2021/04/16 14:14:28;;;;;;;4.22;2.90;;;12.60;60.60;;;;;;5083243;28;20135;-67
2021/04/16 14:17:05;;;;;;;4.97;2.85;;;12.80;60.10;;;;;;5073943;28;20100;-67
2021/04/16 14:19:52;;;;;;;4.80;3.00;;;13.00;59.30;;;;;;5075943;28;20021;-68
2021/04/16 14:22:29;;;;;;;4.70;2.83;;;13.40;62.30;;;;;;5086476;28;20036;-68
2021/04/16 14:24:55;;;;;;;7.57;3.15;;;13.40;56.60;;;;;;5077865;28;20024;-68
2021/04/16 14:27:21;;;;;;;4.78;2.83;;;13.20;56.80;;;;;;5081179;28;20028;-67
2021/04/16 14:29:47;;;;;;;3.75;2.95;;;13.40;56.50;;;;;;5085263;28;20389;-68
2021/04/16 14:32:14;;;;;;;4.55;2.80;;;13.70;56.20;;;;;;5073870;28;20103;-68
2021/04/16 14:34:39;;;;;;;7.13;2.45;;;13.90;54.40;;;;;;5078024;28;20124;-68
2021/04/16 14:37:05;;;;;;;3.97;3.08;;;13.90;54.60;;;;;;5091678;28;20103;-68
2021/04/16 14:39:31;;;;;;;3.88;2.70;;;14.00;55.30;;;;;;5090242;28;20099;-68
2021/04/16 14:41:58;;;;;;;7.28;2.83;;;13.60;54.80;;;;;;5083633;28;20039;-68
2021/04/16 14:44:24;;;;;;;3.45;2.78;;;13.80;56.40;;;;;;5072467;28;20024;-68
2021/04/16 14:46:51;;;;;;;6.13;3.20;;;13.50;56.10;;;;;;5092304;28;20020;-67
2021/04/16 14:49:20;;;;;;;6.13;3.20;;;13.10;57.40;;;;;;5078906;28;20028;-67
2021/04/16 14:51:47;;;;;;;4.07;2.83;;;13.20;59.40;;;;;;5075527;28;20481;-68
2021/04/16 14:54:25;;;;;;;3.08;2.70;;;13.30;57.20;;;;;;5093287;28;20059;-68
2021/04/16 14:56:51;;;;;;;6.18;3.00;;;13.40;57.70;;;;;;5093921;28;20012;-68
2021/04/16 14:59:23;;;;;;;5.43;3.60;;;13.30;56.90;;;;;;5094524;28;20031;-68
2021/04/16 15:01:51;;;;;;;6.40;3.63;;;13.20;58.60;;;;;;5094249;28;20016;-68
2021/04/16 15:04:18;;;;;;;4.07;3.35;;;13.30;57.90;;;;;;5092977;28;20333;-68
2021/04/16 15:06:44;;;;;;;6.38;4.35;;;13.30;58.20;;;;;;5094466;28;20020;-68
2021/04/16 15:09:13;;;;;;;5.57;3.13;;;13.40;57.10;;;;;;5094181;28;20020;-68
2021/04/16 15:11:45;;;;;;;9.70;4.60;;;13.50;57.30;;;;;;5094104;28;20020;-68
2021/04/16 15:14:25;;;;;;;4.95;3.20;;;13.40;57.50;;;;;;5093993;28;20483;-68
2021/04/16 15:16:51;;;;;;;6.50;3.00;;;13.50;57.30;;;;;;5093599;28;20119;-68
2021/04/16 15:19:36;;;;;;;5.53;3.63;;;13.60;58.80;;;;;;5094285;28;20012;-68
2021/04/16 15:22:05;;;;;;;11.02;2.90;;;13.60;56.10;;;;;;5093915;28;20476;-68
2021/04/16 15:24:31;;;;;;;5.00;3.33;;;13.30;52.40;;;;;;5092399;28;20118;-68
2021/04/16 15:26:58;;;;;;;4.68;2.63;;;13.30;54.30;;;;;;5093880;28;20073;-68
2021/04/16 15:29:29;;;;;;;4.28;3.30;;;13.40;55.20;;;;;;5094060;28;20032;-68
2021/04/16 15:31:55;;;;;;;5.35;3.42;;;13.40;55.50;;;;;;5093500;28;20030;-68
2021/04/16 15:46:01;;;;;;;6.60;3.88;;;13.20;57.80;;;;;;5111047;28;20028;-68
2021/04/16 15:48:29;;;;;;;8.48;3.42;;;13.10;58.00;;;;;;5111712;28;20077;-66